^^
Meteo Knjazevac Station Historical Data
Daily Summary for August 20, 2021 Units:  Both    English   Metric
Daily Weekly Monthly Yearly Custom
  High: Low: Average:
Temperature: 56.3 °F /  13.5 °C 53.1 °F /  11.7 °C 54.8 °F /  12.7 °C
Dew Point: 52.7 °F /  11.5 °C 51.8 °F /  11 °C 52.3 °F /  11.3 °C
Humidity: 98% 85% 91%
Wind Speed: 1mph /  1.6km/h - 0.6mph /  1km/h
Wind Gust: 5mph /  8km/h - -
Wind- - WSW
Pressure: 29.88 in /  1011.7 hPa 29.85 in /  1010.7 hPa -
Precipitation: 0.14 in /  3.56 mm    
Historical Graphs
 
 
Tabular Data for August 20, 2021
Time Temperature Dew Point Pressure Wind Wind Speed Wind Gust Humidity Rainfall Rate (Hourly) solar Conditions
00:00 56.3 °F /  13.5 °C 51.8 °F /  11 °C 29.88in /  1011.7hPa SW 1mph /  1.6km/h 3mph /  4.8km/h 85% 0.00in /  0mm 0 W/m2
00:10 56.3 °F /  13.5 °C 52.2 °F /  11.2 °C 29.88in /  1011.7hPa WSW 1mph /  1.6km/h 3mph /  4.8km/h 86% 0.00in /  0mm 0 W/m2
00:20 56.3 °F /  13.5 °C 52.2 °F /  11.2 °C 29.88in /  1011.7hPa Calm   2mph /  3.2km/h 86% 0.00in /  0mm 0 W/m2
00:40 55.9 °F /  13.3 °C 52.4 °F /  11.3 °C 29.88in /  1011.7hPa NW 1mph /  1.6km/h 2mph /  3.2km/h 88% 0.00in /  0mm 0 W/m2
01:00 55.8 °F /  13.2 °C 52.3 °F /  11.3 °C 29.86in /  1011.1hPa Calm   3mph /  4.8km/h 88% 0.00in /  0mm 0 W/m2
01:20 55.6 °F /  13.1 °C 52.4 °F /  11.3 °C 29.86in /  1011.1hPa West 1mph /  1.6km/h 2mph /  3.2km/h 89% 0.00in /  0mm 0 W/m2
01:30 55.5 °F /  13.1 °C 52.4 °F /  11.3 °C 29.86in /  1011.1hPa Calm   1mph /  1.6km/h 89% 0.00in /  0mm 0 W/m2
01:40 55.4 °F /  13 °C 52.2 °F /  11.2 °C 29.86in /  1011.1hPa West 1mph /  1.6km/h 2mph /  3.2km/h 89% 0.00in /  0mm 0 W/m2
01:50 55.2 °F /  12.9 °C 52 °F /  11.1 °C 29.85in /  1010.7hPa North 1mph /  1.6km/h 2mph /  3.2km/h 89% 0.00in /  0mm 0 W/m2
02:00 55.2 °F /  12.9 °C 52 °F /  11.1 °C 29.85in /  1010.7hPa Calm   2mph /  3.2km/h 89% 0.00in /  0mm 0 W/m2
02:10 55.2 °F /  12.9 °C 52 °F /  11.1 °C 29.85in /  1010.7hPa Calm   3mph /  4.8km/h 89% 0.00in /  0mm 0 W/m2
02:20 55 °F /  12.8 °C 52.2 °F /  11.2 °C 29.85in /  1010.7hPa SSE 1mph /  1.6km/h 2mph /  3.2km/h 90% 0.00in /  0mm 0 W/m2
02:40 55 °F /  12.8 °C 52.1 °F /  11.2 °C 29.85in /  1010.7hPa Calm   2mph /  3.2km/h 90% 0.00in /  0mm 0 W/m2
03:00 54.9 °F /  12.7 °C 52.3 °F /  11.3 °C 29.85in /  1010.7hPa Calm   2mph /  3.2km/h 91% 0.00in /  0mm 0 W/m2
03:10 54.7 °F /  12.6 °C 52.1 °F /  11.2 °C 29.85in /  1010.7hPa WNW 1mph /  1.6km/h 3mph /  4.8km/h 91% 0.00in /  0mm 0 W/m2
03:20 54.7 °F /  12.6 °C 52.7 °F /  11.5 °C 29.85in /  1010.7hPa West 1mph /  1.6km/h 3mph /  4.8km/h 93% 0.00in /  0mm 0 W/m2
03:30 54.5 °F /  12.5 °C 52.5 °F /  11.4 °C 29.85in /  1010.7hPa WSW 1mph /  1.6km/h 3mph /  4.8km/h 93% 0.00in /  0mm 0 W/m2
03:40 54.3 °F /  12.4 °C 52.3 °F /  11.3 °C 29.85in /  1010.7hPa WSW 1mph /  1.6km/h 2mph /  3.2km/h 93% 0.00in /  0mm 0 W/m2
04:00 54.1 °F /  12.3 °C 52.5 °F /  11.4 °C 29.85in /  1010.7hPa Calm   2mph /  3.2km/h 94% 0.00in /  0mm 0 W/m2
04:30 54 °F /  12.2 °C 52.6 °F /  11.4 °C 29.86in /  1011.1hPa NW 1mph /  1.6km/h 5mph /  8km/h 95% 0.01in /  0.25mm 0 W/m2
04:40 53.8 °F /  12.1 °C 52.4 °F /  11.3 °C 29.86in /  1011.1hPa WNW 1mph /  1.6km/h 4mph /  6.4km/h 95% 0.00in /  0mm 0 W/m2
04:50 53.6 °F /  12 °C 52.5 °F /  11.4 °C 29.86in /  1011.1hPa WSW 1mph /  1.6km/h 2mph /  3.2km/h 96% 0.01in /  0.25mm 0 W/m2
05:00 53.4 °F /  11.9 °C 52.3 °F /  11.3 °C 29.86in /  1011.1hPa SSW 1mph /  1.6km/h 3mph /  4.8km/h 96% 0.01in /  0.25mm 0 W/m2
05:10 53.4 °F /  11.9 °C 52.3 °F /  11.3 °C 29.86in /  1011.1hPa Calm   3mph /  4.8km/h 96% 0.01in /  0.25mm 0 W/m2
05:30 53.2 °F /  11.8 °C 52.7 °F /  11.5 °C 29.86in /  1011.1hPa Calm   2mph /  3.2km/h 98% 0.04in /  1.02mm 2 W/m2
05:40 53.1 °F /  11.7 °C 52.5 °F /  11.4 °C 29.87in /  1011.4hPa South 1mph /  1.6km/h 2mph /  3.2km/h 98% 0.02in /  0.51mm 3 W/m2
Knjazevac, Serbia
Compliments of Weather Underground - 2 mb